Kernan, Illinois
Current Conditions -  °F | °C
As of 8:15 AM on Sunday 25 Jan 2015 (Local Time) from KPNT Reporting Station
Light Rain Light Rain  
Wind Chill: 24°   Ceiling: 400
Heat Index: 34°   Visibility: 1.5mi
Dew Point: 34°   Wind: 16mph
Humidity: 98%   Direction: 50°NE
Pressure: 29.67"   Gusts: 24mph
Location:  41.1182°N, 88.8294°W
Report Text: KPNT 251415Z AUTO 05014G21KT 1 1/2SM -RA OVC004 01/01 A2967 RMK AO2 P0001 T00130010
Loading
Personal Weather Stations






























Interactive Weather Map New forecast layout! Learn more

10-Day Weather Forecast

Advertisements
Track Severe Weather on mobile